createdAt,value
2018-03-30T00:00:19.324Z,3.44
2018-03-30T00:01:19.358Z,3.42
2018-03-30T00:03:12.338Z,3.42
2018-03-30T00:04:12.390Z,3.41
2018-03-30T00:06:05.388Z,3.51
2018-03-30T00:07:05.427Z,3.51
2018-03-30T00:08:58.413Z,3.41
2018-03-30T00:09:58.466Z,3.42
2018-03-30T00:11:51.468Z,3.40
2018-03-30T00:12:51.497Z,3.40
2018-03-30T00:14:44.473Z,3.36
2018-03-30T00:15:44.530Z,3.32
2018-03-30T00:17:37.524Z,3.34
2018-03-30T00:18:37.558Z,3.34
2018-03-30T00:20:30.560Z,3.26
2018-03-30T00:21:30.595Z,3.42
2018-03-30T00:23:23.577Z,3.29
2018-03-30T00:24:23.630Z,3.31
2018-03-30T00:26:16.625Z,3.32
2018-03-30T00:27:16.662Z,3.36
2018-03-30T00:29:09.638Z,3.42
2018-03-30T00:30:09.693Z,3.40
2018-03-30T00:32:02.697Z,3.40
2018-03-30T00:33:02.725Z,3.37
2018-03-30T00:34:55.710Z,3.42
2018-03-30T00:35:55.765Z,3.31
2018-03-30T00:37:48.761Z,3.32
2018-03-30T00:38:48.814Z,3.40
2018-03-30T00:40:41.794Z,3.29
2018-03-30T00:41:41.833Z,3.31
2018-03-30T00:43:34.808Z,3.29
2018-03-30T00:44:34.864Z,3.31
2018-03-30T00:46:27.859Z,3.45
2018-03-30T00:47:27.896Z,3.31
2018-03-30T00:49:20.870Z,3.36
2018-03-30T00:50:20.934Z,3.37
2018-03-30T00:52:13.930Z,3.41
2018-03-30T00:53:13.969Z,3.40
2018-03-30T00:55:06.942Z,3.31
2018-03-30T00:56:07.002Z,3.32
2018-03-30T00:57:59.990Z,3.41
2018-03-30T00:59:00.027Z,3.44
2018-03-30T01:00:53.025Z,3.37
2018-03-30T01:01:53.059Z,3.40
2018-03-30T01:03:46.035Z,3.28
2018-03-30T01:04:46.089Z,3.42
2018-03-30T01:06:39.091Z,3.44
2018-03-30T01:07:39.127Z,3.32
2018-03-30T01:09:32.107Z,3.34
2018-03-30T01:10:32.167Z,3.32
2018-03-30T01:12:25.169Z,3.32
2018-03-30T01:13:25.205Z,3.37
2018-03-30T01:15:18.184Z,3.34
2018-03-30T01:16:18.241Z,3.34
2018-03-30T01:18:11.236Z,3.32
2018-03-30T01:19:11.273Z,3.36
2018-03-30T01:21:04.270Z,3.31
2018-03-30T01:22:04.307Z,3.32
2018-03-30T01:23:57.288Z,3.32
2018-03-30T01:24:57.346Z,3.37
2018-03-30T01:26:50.354Z,3.28
2018-03-30T01:27:50.390Z,3.42
2018-03-30T01:29:43.371Z,3.28
2018-03-30T01:30:43.427Z,3.37
2018-03-30T01:32:36.420Z,3.31
2018-03-30T01:33:36.454Z,3.36
2018-03-30T01:35:29.442Z,3.44
2018-03-30T01:36:29.490Z,3.40
2018-03-30T01:38:22.485Z,3.51
2018-03-30T01:39:22.519Z,3.50
2018-03-30T01:41:15.515Z,3.55
2018-03-30T01:42:15.550Z,3.50
2018-03-30T01:44:08.525Z,3.48
2018-03-30T01:45:08.580Z,3.59
2018-03-30T01:47:01.579Z,3.48
2018-03-30T01:48:01.617Z,3.60
2018-03-30T01:49:54.594Z,3.60
2018-03-30T01:50:54.650Z,3.58
2018-03-30T01:52:47.642Z,3.55
2018-03-30T01:53:47.678Z,3.56
2018-03-30T01:55:40.654Z,3.60
2018-03-30T01:56:40.708Z,3.59
2018-03-30T01:58:33.709Z,3.62
2018-03-30T01:59:33.741Z,3.63
2018-03-30T02:01:26.737Z,3.59
2018-03-30T02:02:26.773Z,3.63
2018-03-30T02:04:19.748Z,3.59
2018-03-30T02:05:19.804Z,3.60
2018-03-30T02:07:12.799Z,3.65
2018-03-30T02:08:12.835Z,3.63
2018-03-30T02:10:05.814Z,3.66
2018-03-30T02:11:05.869Z,3.68
2018-03-30T02:12:58.872Z,3.60
2018-03-30T02:13:58.899Z,3.66
2018-03-30T02:15:51.876Z,3.76
2018-03-30T02:16:51.933Z,3.63
2018-03-30T02:18:44.924Z,3.77
2018-03-30T02:19:44.962Z,3.63
2018-03-30T02:21:37.965Z,3.77
2018-03-30T02:22:37.997Z,3.74
2018-03-30T02:24:31.019Z,3.86
2018-03-30T02:25:31.031Z,3.84
2018-03-30T02:27:24.540Z,3.83
2018-03-30T02:28:24.571Z,3.91
2018-03-30T02:30:17.554Z,3.91
2018-03-30T02:31:17.605Z,3.98
2018-03-30T02:33:10.605Z,3.94
2018-03-30T02:34:10.640Z,4.01
2018-03-30T02:36:03.618Z,3.92
2018-03-30T02:37:03.673Z,3.91
2018-03-30T02:38:56.671Z,3.87
2018-03-30T02:39:56.708Z,3.94
2018-03-30T02:41:49.706Z,3.84
2018-03-30T02:42:49.742Z,3.87
2018-03-30T02:44:42.716Z,3.91
2018-03-30T02:45:42.774Z,3.88
2018-03-30T02:47:35.767Z,3.99
2018-03-30T02:48:35.801Z,3.98
2018-03-30T02:50:28.787Z,3.94
2018-03-30T02:51:28.844Z,3.94
2018-03-30T02:53:21.841Z,3.95
2018-03-30T02:54:21.879Z,3.91
2018-03-30T02:56:14.855Z,3.92
2018-03-30T02:57:14.912Z,3.94
2018-03-30T02:59:07.903Z,4.02
2018-03-30T03:00:07.943Z,4.05
2018-03-30T03:02:00.935Z,4.05
2018-03-30T03:03:00.971Z,4.08
2018-03-30T03:04:53.976Z,4.02
2018-03-30T03:05:54.031Z,4.05
2018-03-30T03:07:47.028Z,4.10
2018-03-30T03:08:47.061Z,4.06
2018-03-30T03:10:40.044Z,4.10
2018-03-30T03:11:40.098Z,4.14
2018-03-30T03:13:33.093Z,4.16
2018-03-30T03:14:33.127Z,4.05
2018-03-30T03:16:26.103Z,4.16
2018-03-30T03:17:26.159Z,4.20
2018-03-30T03:19:19.155Z,4.24
2018-03-30T03:20:19.192Z,4.12
2018-03-30T03:22:12.196Z,4.16
2018-03-30T03:23:12.227Z,4.16
2018-03-30T03:25:05.215Z,4.22
2018-03-30T03:26:05.268Z,4.19
2018-03-30T03:27:58.780Z,4.10
2018-03-30T03:28:58.815Z,4.20
2018-03-30T03:30:51.795Z,4.14
2018-03-30T03:31:51.850Z,4.13
2018-03-30T03:33:44.850Z,4.16
2018-03-30T03:34:44.892Z,4.16
2018-03-30T03:36:37.868Z,4.16
2018-03-30T03:37:37.924Z,4.22
2018-03-30T03:39:30.918Z,4.26
2018-03-30T03:40:30.956Z,4.28
2018-03-30T03:42:23.950Z,4.28
2018-03-30T03:43:23.986Z,4.28
2018-03-30T03:45:16.961Z,4.30
2018-03-30T03:46:17.015Z,4.35
2018-03-30T03:48:10.023Z,4.30
2018-03-30T03:49:10.061Z,4.32
2018-03-30T03:51:03.043Z,4.28
2018-03-30T03:52:03.093Z,4.24
2018-03-30T03:53:56.606Z,4.28
2018-03-30T03:54:56.647Z,4.26
2018-03-30T03:56:49.625Z,4.23
2018-03-30T03:57:49.681Z,4.24
2018-03-30T03:59:42.676Z,4.24
2018-03-30T04:00:42.711Z,4.26
2018-03-30T04:02:35.719Z,4.30
2018-03-30T04:03:35.752Z,4.31
2018-03-30T04:05:28.744Z,4.28
2018-03-30T04:06:28.787Z,4.23
2018-03-30T04:08:21.783Z,4.23
2018-03-30T04:09:21.820Z,4.22
2018-03-30T04:11:14.799Z,4.24
2018-03-30T04:12:14.854Z,4.31
2018-03-30T04:14:07.853Z,4.28
2018-03-30T04:15:07.890Z,4.26
2018-03-30T04:17:00.872Z,4.26
2018-03-30T04:18:00.926Z,4.28
2018-03-30T04:19:53.922Z,4.26
2018-03-30T04:20:53.963Z,4.31
2018-03-30T04:22:46.952Z,4.31
2018-03-30T04:23:46.991Z,4.24
2018-03-30T04:25:39.971Z,4.23
2018-03-30T04:26:40.027Z,4.28
2018-03-30T04:28:33.030Z,4.31
2018-03-30T04:29:33.063Z,4.28
2018-03-30T04:31:26.040Z,4.24
2018-03-30T04:32:26.097Z,4.30
2018-03-30T04:34:19.091Z,4.30
2018-03-30T04:35:19.128Z,4.30
2018-03-30T04:37:12.110Z,4.41
2018-03-30T04:38:12.168Z,4.26
2018-03-30T04:40:05.166Z,4.40
2018-03-30T04:41:05.203Z,4.41
2018-03-30T04:42:58.286Z,4.38
2018-03-30T04:43:58.288Z,4.38
2018-03-30T04:45:51.265Z,4.38
2018-03-30T04:46:51.314Z,4.44
2018-03-30T04:48:44.330Z,4.45
2018-03-30T04:49:44.311Z,4.45
2018-03-30T04:51:37.298Z,4.44
2018-03-30T04:52:37.348Z,4.45
2018-03-30T04:54:30.351Z,4.45
2018-03-30T04:55:30.384Z,4.38
2018-03-30T04:57:23.366Z,4.52
2018-03-30T04:58:23.421Z,4.38
2018-03-30T05:00:16.417Z,4.42
2018-03-30T05:01:16.452Z,4.50
2018-03-30T05:03:09.454Z,4.49
2018-03-30T05:04:09.490Z,4.49
2018-03-30T05:06:02.468Z,4.45
2018-03-30T05:07:02.528Z,4.52
2018-03-30T05:08:55.523Z,4.50
2018-03-30T05:09:55.558Z,4.55
2018-03-30T05:11:48.535Z,4.58
2018-03-30T05:12:48.598Z,4.56
2018-03-30T05:14:43.516Z,4.52
2018-03-30T05:15:43.312Z,4.55
2018-03-30T05:17:36.115Z,4.59
2018-03-30T05:18:36.075Z,4.67
2018-03-30T05:20:30.056Z,4.59
2018-03-30T05:21:29.624Z,4.66
2018-03-30T05:23:22.571Z,4.66
2018-03-30T05:24:22.606Z,4.82
2018-03-30T05:26:15.586Z,4.70
2018-03-30T05:27:15.647Z,4.77
2018-03-30T05:29:09.152Z,4.63
2018-03-30T05:30:09.206Z,4.73
2018-03-30T05:32:02.225Z,4.74
2018-03-30T05:33:02.251Z,4.80
2018-03-30T05:34:55.280Z,4.74
2018-03-30T05:35:55.288Z,4.73
2018-03-30T05:37:48.273Z,4.59
2018-03-30T05:38:48.332Z,4.62
2018-03-30T05:40:41.349Z,4.60
2018-03-30T05:41:41.333Z,4.67
2018-03-30T05:43:34.317Z,4.62
2018-03-30T05:44:34.353Z,4.62
2018-03-30T05:46:27.332Z,4.63
2018-03-30T05:47:27.385Z,4.73
2018-03-30T05:49:20.394Z,4.71
2018-03-30T05:50:20.425Z,4.75
2018-03-30T05:52:13.422Z,4.82
2018-03-30T05:53:13.466Z,4.78
2018-03-30T05:55:06.482Z,4.86
2018-03-30T05:56:06.514Z,4.90
2018-03-30T05:57:59.492Z,5.04
2018-03-30T05:58:59.545Z,4.97
2018-03-30T06:00:52.540Z,4.94
2018-03-30T06:01:52.575Z,5.00
2018-03-30T06:03:45.577Z,5.00
2018-03-30T06:04:45.614Z,5.04
2018-03-30T06:06:38.594Z,5.11
2018-03-30T06:07:38.648Z,5.02
2018-03-30T06:09:31.644Z,5.12
2018-03-30T06:10:31.684Z,5.04
2018-03-30T06:12:24.657Z,5.10
2018-03-30T06:13:24.747Z,5.17
2018-03-30T06:15:17.713Z,5.23
2018-03-30T06:16:17.749Z,5.33
2018-03-30T06:18:10.723Z,5.33
2018-03-30T06:19:10.805Z,5.33
2018-03-30T06:21:03.807Z,5.36
2018-03-30T06:22:03.826Z,5.28
2018-03-30T06:23:56.824Z,5.36
2018-03-30T06:24:56.857Z,5.32
2018-03-30T06:26:49.889Z,5.38
2018-03-30T06:27:49.895Z,5.36
2018-03-30T06:29:42.897Z,5.43
2018-03-30T06:30:42.932Z,5.38
2018-03-30T06:32:35.910Z,5.51
2018-03-30T06:33:35.965Z,5.54
2018-03-30T06:35:28.971Z,5.54
2018-03-30T06:36:29.008Z,5.53
2018-03-30T06:38:21.982Z,5.43
2018-03-30T06:39:22.038Z,5.57
2018-03-30T06:41:15.562Z,5.65
2018-03-30T06:42:15.600Z,5.65
2018-03-30T06:44:08.703Z,5.66
2018-03-30T06:45:08.719Z,5.64
2018-03-30T06:47:03.161Z,5.68
2018-03-30T06:48:03.211Z,5.71
2018-03-30T06:49:56.312Z,5.73
2018-03-30T06:50:56.266Z,5.76
2018-03-30T06:52:49.198Z,6.01
2018-03-30T06:53:49.255Z,6.07
2018-03-30T06:55:42.765Z,6.30
2018-03-30T06:56:42.798Z,6.33
2018-03-30T06:58:35.784Z,6.49
2018-03-30T06:59:35.839Z,6.60
2018-03-30T07:01:28.836Z,6.74
2018-03-30T07:02:28.873Z,6.85
2018-03-30T07:04:21.879Z,7.13
2018-03-30T07:05:21.917Z,7.21
2018-03-30T07:07:14.896Z,7.45
2018-03-30T07:08:14.952Z,7.51
2018-03-30T07:10:07.950Z,8.12
2018-03-30T07:11:07.988Z,9.56
2018-03-30T07:13:00.984Z,11.27
2018-03-30T07:14:01.340Z,11.94
2018-03-30T07:15:54.031Z,11.50
2018-03-30T07:16:54.081Z,11.25
2018-03-30T07:18:47.060Z,11.73
2018-03-30T07:19:47.108Z,12.10
2018-03-30T07:21:40.667Z,12.73
2018-03-30T07:22:40.677Z,12.65
2018-03-30T07:24:33.671Z,12.76
2018-03-30T07:25:33.710Z,12.07
2018-03-30T07:27:26.698Z,10.56
2018-03-30T07:28:26.761Z,9.95
2018-03-30T07:30:19.766Z,8.89
2018-03-30T07:31:19.804Z,8.73
2018-03-30T07:33:12.802Z,8.73
2018-03-30T07:34:12.860Z,8.70
2018-03-30T07:36:05.867Z,8.84
2018-03-30T07:37:05.914Z,8.92
2018-03-30T07:38:58.899Z,8.84
2018-03-30T07:39:58.956Z,8.78
2018-03-30T07:41:51.964Z,9.48
2018-03-30T07:42:51.999Z,9.72
2018-03-30T07:44:45.012Z,10.16
2018-03-30T07:45:45.047Z,10.74
2018-03-30T07:47:38.035Z,11.57
2018-03-30T07:48:38.090Z,11.68
2018-03-30T07:50:31.147Z,10.35
2018-03-30T07:51:31.134Z,9.80
2018-03-30T07:53:24.124Z,9.23
2018-03-30T07:54:24.243Z,8.84
2018-03-30T07:56:17.187Z,8.45
2018-03-30T07:57:17.228Z,8.31
2018-03-30T07:59:10.244Z,8.16
2018-03-30T08:00:10.272Z,8.26
2018-03-30T08:02:03.796Z,8.13
2018-03-30T08:03:03.825Z,8.01
2018-03-30T08:04:56.828Z,8.00
2018-03-30T08:05:56.866Z,8.08
2018-03-30T08:07:49.858Z,8.20
2018-03-30T08:08:49.913Z,8.16
2018-03-30T08:10:42.931Z,8.18
2018-03-30T08:11:42.954Z,8.26
2018-03-30T08:13:35.978Z,8.16
2018-03-30T08:14:35.993Z,8.26
2018-03-30T08:16:28.996Z,8.27
2018-03-30T08:17:29.034Z,8.18
2018-03-30T08:19:22.024Z,8.26
2018-03-30T08:20:22.081Z,8.34
2018-03-30T08:22:15.087Z,8.41
2018-03-30T08:23:15.128Z,8.34
2018-03-30T08:25:08.128Z,8.45
2018-03-30T08:26:08.167Z,8.37
2018-03-30T08:28:01.169Z,8.41
2018-03-30T08:29:01.212Z,8.48
2018-03-30T08:30:54.212Z,8.52
2018-03-30T08:31:54.248Z,8.64
2018-03-30T08:33:47.233Z,8.61
2018-03-30T08:34:47.292Z,8.60
2018-03-30T08:36:40.293Z,8.73
2018-03-30T08:37:40.332Z,8.76
2018-03-30T08:39:33.331Z,8.71
2018-03-30T08:40:33.379Z,8.70
2018-03-30T08:42:26.385Z,8.74
2018-03-30T08:43:26.418Z,8.79
2018-03-30T08:45:19.419Z,8.82
2018-03-30T08:46:19.458Z,8.92
2018-03-30T08:48:12.445Z,9.02
2018-03-30T08:49:12.518Z,8.99
2018-03-30T08:51:05.508Z,9.04
2018-03-30T08:52:05.801Z,8.95
2018-03-30T08:53:58.534Z,8.97
2018-03-30T08:54:58.582Z,8.87
2018-03-30T08:56:51.591Z,8.88
2018-03-30T08:57:51.629Z,9.04
2018-03-30T08:59:44.611Z,9.00
2018-03-30T09:00:44.673Z,8.85
2018-03-30T09:02:37.672Z,8.99
2018-03-30T09:03:37.711Z,9.00
2018-03-30T09:05:30.713Z,9.16
2018-03-30T09:06:30.750Z,9.19
2018-03-30T09:08:23.737Z,9.26
2018-03-30T09:09:23.788Z,9.23
2018-03-30T09:11:16.791Z,9.51
2018-03-30T09:12:16.860Z,9.55
2018-03-30T09:14:09.833Z,9.82
2018-03-30T09:15:09.913Z,9.69
2018-03-30T09:17:02.898Z,9.73
2018-03-30T09:18:02.942Z,9.65
2018-03-30T09:19:55.925Z,9.89
2018-03-30T09:20:56.005Z,9.91
2018-03-30T09:22:49.107Z,10.01
2018-03-30T09:23:49.101Z,10.12
2018-03-30T09:25:42.066Z,10.37
2018-03-30T09:26:42.103Z,10.57
2018-03-30T09:28:35.100Z,10.59
2018-03-30T09:29:35.144Z,10.75
2018-03-30T09:31:28.147Z,10.72
2018-03-30T09:32:28.205Z,10.82
2018-03-30T09:34:21.176Z,10.94
2018-03-30T09:35:21.233Z,11.08
2018-03-30T09:37:14.263Z,10.99
2018-03-30T09:38:14.286Z,10.99
2018-03-30T09:40:07.270Z,10.89
2018-03-30T09:41:07.330Z,10.90
2018-03-30T09:43:00.335Z,11.15
2018-03-30T09:44:00.375Z,10.99
2018-03-30T09:45:53.384Z,11.08
2018-03-30T09:46:53.424Z,10.87
2018-03-30T09:48:46.412Z,11.15
2018-03-30T09:49:46.472Z,11.27
2018-03-30T09:51:39.995Z,11.50
2018-03-30T09:52:40.038Z,11.83
2018-03-30T09:54:33.022Z,11.88
2018-03-30T09:55:33.080Z,12.04
2018-03-30T09:57:26.129Z,12.02
2018-03-30T09:58:26.131Z,12.03
2018-03-30T10:00:19.121Z,12.04
2018-03-30T10:01:19.177Z,12.03
2018-03-30T10:03:12.701Z,11.91
2018-03-30T10:04:12.735Z,11.90
2018-03-30T10:06:05.730Z,11.94
2018-03-30T10:07:05.783Z,11.90
2018-03-30T10:08:58.758Z,12.07
2018-03-30T10:09:58.815Z,12.02
2018-03-30T10:11:51.826Z,12.18
2018-03-30T10:12:51.860Z,11.99
2018-03-30T10:14:44.848Z,12.10
2018-03-30T10:15:44.902Z,12.10
2018-03-30T10:17:37.903Z,12.50
2018-03-30T10:18:37.943Z,12.57
2018-03-30T10:20:30.928Z,12.68
2018-03-30T10:21:30.989Z,12.76
2018-03-30T10:23:23.992Z,12.87
2018-03-30T10:24:24.031Z,12.90
2018-03-30T10:26:17.032Z,12.83
2018-03-30T10:27:17.072Z,12.93
2018-03-30T10:29:10.062Z,13.03
2018-03-30T10:30:10.119Z,13.15
2018-03-30T10:32:03.119Z,13.15
2018-03-30T10:33:03.161Z,13.30
2018-03-30T10:34:56.147Z,13.30
2018-03-30T10:35:56.201Z,13.13
2018-03-30T10:37:49.206Z,13.25
2018-03-30T10:38:49.248Z,13.39
2018-03-30T10:40:42.239Z,13.57
2018-03-30T10:41:42.300Z,13.49
2018-03-30T10:43:35.343Z,13.60
2018-03-30T10:44:35.342Z,13.65
2018-03-30T10:46:28.348Z,13.65
2018-03-30T10:47:28.387Z,13.67
2018-03-30T10:49:21.374Z,13.72
2018-03-30T10:50:21.434Z,13.77
2018-03-30T10:52:14.438Z,13.85
2018-03-30T10:53:14.481Z,13.71
2018-03-30T10:55:07.465Z,13.83
2018-03-30T10:56:07.521Z,13.79
2018-03-30T10:58:00.542Z,13.89
2018-03-30T10:59:00.571Z,14.03
2018-03-30T11:00:53.563Z,13.92
2018-03-30T11:01:53.621Z,13.93
2018-03-30T11:03:46.624Z,13.83
2018-03-30T11:04:46.664Z,13.70
2018-03-30T11:06:39.671Z,13.70
2018-03-30T11:07:39.710Z,13.67
2018-03-30T11:09:32.698Z,13.70
2018-03-30T11:10:32.754Z,13.72
2018-03-30T11:12:25.760Z,13.97
2018-03-30T11:13:25.801Z,14.12
2018-03-30T11:15:18.790Z,14.50
2018-03-30T11:16:18.847Z,14.53
2018-03-30T11:18:11.866Z,14.54
2018-03-30T11:19:11.907Z,14.63
2018-03-30T11:21:04.898Z,14.72
2018-03-30T11:22:04.960Z,14.68
2018-03-30T11:23:57.965Z,14.65
2018-03-30T11:24:58.008Z,14.58
2018-03-30T11:26:51.021Z,14.73
2018-03-30T11:27:51.061Z,14.35
2018-03-30T11:29:44.048Z,14.48
2018-03-30T11:30:44.112Z,14.37
2018-03-30T11:32:37.117Z,14.37
2018-03-30T11:33:37.174Z,14.20
2018-03-30T11:35:30.147Z,14.54
2018-03-30T11:36:30.209Z,14.63
2018-03-30T11:38:23.215Z,14.59
2018-03-30T11:39:23.260Z,14.36
2018-03-30T11:41:16.247Z,14.41
2018-03-30T11:42:16.310Z,14.41
2018-03-30T11:44:09.311Z,14.54
2018-03-30T11:45:09.362Z,14.45
2018-03-30T11:47:02.360Z,14.53
2018-03-30T11:48:02.400Z,14.72
2018-03-30T11:49:55.395Z,14.44
2018-03-30T11:50:55.462Z,14.44
2018-03-30T11:52:48.464Z,14.32
2018-03-30T11:53:48.505Z,14.35
2018-03-30T11:55:41.490Z,14.20
2018-03-30T11:56:41.552Z,14.22
2018-03-30T11:58:34.566Z,14.33
2018-03-30T11:59:34.608Z,14.44
2018-03-30T12:01:27.596Z,14.59
2018-03-30T12:02:27.661Z,14.53
2018-03-30T12:04:20.663Z,14.60
2018-03-30T12:05:20.703Z,14.50
2018-03-30T12:07:13.708Z,14.29
2018-03-30T12:08:13.749Z,14.29
2018-03-30T12:10:06.735Z,14.18
2018-03-30T12:11:06.794Z,14.23
2018-03-30T12:12:59.816Z,14.29
2018-03-30T12:13:59.852Z,14.28
2018-03-30T12:15:52.836Z,14.54
2018-03-30T12:16:52.901Z,14.41
2018-03-30T12:18:45.910Z,14.55
2018-03-30T12:19:45.944Z,14.59
2018-03-30T12:21:38.939Z,14.59
2018-03-30T12:22:38.997Z,14.51
2018-03-30T12:24:32.001Z,14.43
2018-03-30T12:25:32.042Z,14.55
2018-03-30T12:27:25.051Z,14.29
2018-03-30T12:28:25.091Z,14.30
2018-03-30T12:30:18.080Z,14.60
2018-03-30T12:31:18.142Z,14.79
2018-03-30T12:33:11.157Z,14.72
2018-03-30T12:34:11.195Z,14.91
2018-03-30T12:36:04.186Z,14.77
2018-03-30T12:37:04.241Z,14.73
2018-03-30T12:38:57.252Z,14.92
2018-03-30T12:39:57.330Z,14.91
2018-03-30T12:41:50.283Z,14.85
2018-03-30T12:42:50.345Z,14.78
2018-03-30T12:44:43.349Z,14.68
2018-03-30T12:45:43.389Z,14.78
2018-03-30T12:47:36.396Z,14.82
2018-03-30T12:48:36.442Z,14.79
2018-03-30T12:50:29.429Z,14.58
2018-03-30T12:51:29.652Z,14.53
2018-03-30T12:53:22.499Z,14.37
2018-03-30T12:54:22.541Z,14.40
2018-03-30T12:56:15.530Z,14.58
2018-03-30T12:57:15.592Z,14.73
2018-03-30T12:59:09.158Z,14.72
2018-03-30T13:00:09.143Z,14.77
2018-03-30T13:02:02.163Z,14.72
2018-03-30T13:03:02.190Z,14.86
2018-03-30T13:04:55.206Z,14.99
2018-03-30T13:05:55.249Z,15.07
2018-03-30T13:07:48.293Z,15.07
2018-03-30T13:08:48.297Z,15.02
2018-03-30T13:10:41.288Z,15.03
2018-03-30T13:11:41.355Z,14.94
2018-03-30T13:13:34.379Z,15.04
2018-03-30T13:14:34.407Z,15.07
2018-03-30T13:16:27.391Z,15.00
2018-03-30T13:17:27.451Z,15.15
2018-03-30T13:19:20.461Z,15.18
2018-03-30T13:20:20.501Z,15.27
2018-03-30T13:22:13.499Z,15.19
2018-03-30T13:23:13.550Z,15.03
2018-03-30T13:25:06.557Z,14.63
2018-03-30T13:26:06.610Z,14.84
2018-03-30T13:27:59.604Z,15.03
2018-03-30T13:28:59.644Z,15.06
2018-03-30T13:30:52.633Z,15.14
2018-03-30T13:31:52.694Z,15.06
2018-03-30T13:33:45.702Z,15.00
2018-03-30T13:34:45.742Z,15.06
2018-03-30T13:36:38.735Z,15.00
2018-03-30T13:37:38.798Z,14.84
2018-03-30T13:39:31.830Z,14.78
2018-03-30T13:40:31.853Z,15.02
2018-03-30T13:42:24.845Z,14.97
2018-03-30T13:43:24.906Z,14.96
2018-03-30T13:45:17.914Z,14.97
2018-03-30T13:46:17.956Z,15.04
2018-03-30T13:48:10.961Z,14.86
2018-03-30T13:49:11.004Z,14.88
2018-03-30T13:51:03.996Z,14.89
2018-03-30T13:52:04.052Z,14.99
2018-03-30T13:53:57.062Z,15.04
2018-03-30T13:54:57.109Z,15.04
2018-03-30T13:56:50.103Z,15.14
2018-03-30T13:57:50.164Z,15.04
2018-03-30T13:59:43.178Z,14.99
2018-03-30T14:00:43.223Z,14.96
2018-03-30T14:02:36.209Z,14.89
2018-03-30T14:03:36.269Z,14.92
2018-03-30T14:05:29.284Z,14.89
2018-03-30T14:06:29.329Z,14.94
2018-03-30T14:08:22.351Z,15.11
2018-03-30T14:09:22.384Z,15.14
2018-03-30T14:11:15.373Z,15.11
2018-03-30T14:12:15.438Z,15.03
2018-03-30T14:14:08.956Z,15.06
2018-03-30T14:15:08.993Z,15.11
2018-03-30T14:17:01.989Z,15.18
2018-03-30T14:18:02.042Z,15.03
2018-03-30T14:19:55.055Z,15.02
2018-03-30T14:20:55.101Z,15.00
2018-03-30T14:22:48.093Z,14.99
2018-03-30T14:23:48.234Z,15.00
2018-03-30T14:25:41.156Z,14.96
2018-03-30T14:26:41.197Z,15.00
2018-03-30T14:28:34.206Z,14.99
2018-03-30T14:29:34.248Z,14.97
2018-03-30T14:31:27.237Z,14.73
2018-03-30T14:32:27.298Z,14.60
2018-03-30T14:34:20.305Z,14.63
2018-03-30T14:35:20.347Z,14.63
2018-03-30T14:37:13.340Z,14.82
2018-03-30T14:38:13.400Z,14.81
2018-03-30T14:40:06.438Z,14.79
2018-03-30T14:41:06.448Z,14.77
2018-03-30T14:42:59.442Z,14.72
2018-03-30T14:43:59.503Z,14.63
2018-03-30T14:45:52.522Z,14.59
2018-03-30T14:46:52.557Z,14.62
2018-03-30T14:48:45.563Z,14.70
2018-03-30T14:49:45.605Z,14.58
2018-03-30T14:51:38.610Z,14.36
2018-03-30T14:52:38.657Z,14.44
2018-03-30T14:54:31.666Z,14.54
2018-03-30T14:55:31.721Z,14.41
2018-03-30T14:57:24.695Z,14.44
2018-03-30T14:58:24.755Z,14.40
2018-03-30T15:00:17.766Z,14.41
2018-03-30T15:01:17.809Z,14.47
2018-03-30T15:03:10.794Z,14.43
2018-03-30T15:04:10.905Z,14.47
2018-03-30T15:06:03.866Z,14.51
2018-03-30T15:07:03.902Z,14.48
2018-03-30T15:08:56.915Z,14.50
2018-03-30T15:09:56.959Z,14.50
2018-03-30T15:11:49.948Z,14.65
2018-03-30T15:12:50.007Z,14.66
2018-03-30T15:14:43.521Z,14.59
2018-03-30T15:15:43.572Z,14.55
2018-03-30T15:17:36.563Z,14.40
2018-03-30T15:18:36.619Z,14.37
2018-03-30T15:20:29.624Z,14.40
2018-03-30T15:21:29.667Z,14.36
2018-03-30T15:23:22.653Z,14.25
2018-03-30T15:24:22.714Z,14.32
2018-03-30T15:26:15.730Z,14.40
2018-03-30T15:27:15.779Z,14.37
2018-03-30T15:29:08.774Z,14.32
2018-03-30T15:30:08.815Z,14.15
2018-03-30T15:32:01.807Z,14.29
2018-03-30T15:33:01.869Z,14.22
2018-03-30T15:34:54.873Z,14.20
2018-03-30T15:35:54.915Z,14.18
2018-03-30T15:37:47.962Z,14.29
2018-03-30T15:38:47.968Z,14.17
2018-03-30T15:40:40.976Z,14.17
2018-03-30T15:41:41.018Z,14.20
2018-03-30T15:43:34.005Z,14.20
2018-03-30T15:44:34.063Z,14.17
2018-03-30T15:46:27.075Z,14.17
2018-03-30T15:47:27.112Z,14.10
2018-03-30T15:49:20.119Z,14.11
2018-03-30T15:50:20.160Z,14.17
2018-03-30T15:52:24.634Z,14.14
2018-03-30T15:53:24.298Z,14.17
2018-03-30T15:55:17.262Z,14.11
2018-03-30T15:56:17.300Z,14.10
2018-03-30T15:58:10.283Z,14.05
2018-03-30T15:59:10.345Z,13.97
2018-03-30T16:01:03.350Z,13.96
2018-03-30T16:02:03.392Z,13.99
2018-03-30T16:03:56.382Z,14.07
2018-03-30T16:04:56.442Z,14.03
2018-03-30T16:06:49.453Z,13.99
2018-03-30T16:07:49.497Z,13.99
2018-03-30T16:09:42.501Z,13.95
2018-03-30T16:10:42.546Z,13.86
2018-03-30T16:12:35.535Z,13.85
2018-03-30T16:13:35.597Z,13.78
2018-03-30T16:15:28.628Z,13.81
2018-03-30T16:16:28.669Z,13.89
2018-03-30T16:18:21.678Z,13.87
2018-03-30T16:19:21.734Z,13.70
2018-03-30T16:21:14.738Z,13.67
2018-03-30T16:22:14.780Z,13.67
2018-03-30T16:24:07.769Z,13.65
2018-03-30T16:25:07.833Z,13.62
2018-03-30T16:27:00.839Z,13.63
2018-03-30T16:28:00.886Z,13.67
2018-03-30T16:29:53.891Z,13.60
2018-03-30T16:30:53.931Z,13.63
2018-03-30T16:32:46.926Z,13.56
2018-03-30T16:33:47.147Z,13.54
2018-03-30T16:35:39.992Z,13.57
2018-03-30T16:36:40.035Z,13.56
2018-03-30T16:38:33.032Z,13.56
2018-03-30T16:39:33.094Z,13.54
2018-03-30T16:41:26.105Z,13.50
2018-03-30T16:42:26.133Z,13.47
2018-03-30T16:44:19.125Z,13.49
2018-03-30T16:45:19.193Z,13.54
2018-03-30T16:47:12.207Z,13.47
2018-03-30T16:48:12.239Z,13.50
2018-03-30T16:50:05.256Z,13.44
2018-03-30T16:51:05.297Z,13.46
2018-03-30T16:52:58.286Z,13.37
2018-03-30T16:53:58.343Z,13.27
2018-03-30T16:55:51.359Z,13.23
2018-03-30T16:56:51.391Z,13.23
2018-03-30T16:58:44.417Z,13.22
2018-03-30T16:59:44.476Z,13.20
2018-03-30T17:01:37.453Z,13.20
2018-03-30T17:02:37.497Z,13.13
2018-03-30T17:04:30.483Z,13.18
2018-03-30T17:05:30.569Z,13.08
2018-03-30T17:07:23.558Z,13.08
2018-03-30T17:08:23.589Z,13.18
2018-03-30T17:10:16.622Z,13.04
2018-03-30T17:11:16.672Z,13.03
2018-03-30T17:13:09.627Z,12.97
2018-03-30T17:14:09.679Z,13.00
2018-03-30T17:16:02.711Z,13.03
2018-03-30T17:17:02.727Z,13.00
2018-03-30T17:18:55.714Z,12.95
2018-03-30T17:19:55.770Z,12.97
2018-03-30T17:21:48.780Z,12.91
2018-03-30T17:22:48.821Z,12.86
2018-03-30T17:24:41.812Z,12.91
2018-03-30T17:25:41.867Z,12.86
2018-03-30T17:27:34.875Z,12.86
2018-03-30T17:28:34.910Z,12.87
2018-03-30T17:30:27.933Z,12.91
2018-03-30T17:31:27.970Z,12.94
2018-03-30T17:33:20.996Z,12.79
2018-03-30T17:34:21.021Z,12.85
2018-03-30T17:36:14.024Z,12.79
2018-03-30T17:37:14.083Z,12.79
2018-03-30T17:39:07.054Z,12.73
2018-03-30T17:40:07.111Z,12.76
2018-03-30T17:42:00.118Z,12.75
2018-03-30T17:43:00.156Z,12.76
2018-03-30T17:44:53.145Z,12.67
2018-03-30T17:45:53.233Z,12.60
2018-03-30T17:47:46.206Z,12.64
2018-03-30T17:48:46.246Z,12.73
2018-03-30T17:50:39.266Z,12.64
2018-03-30T17:51:39.305Z,12.65
2018-03-30T17:53:32.296Z,12.46
2018-03-30T17:54:32.377Z,12.50
2018-03-30T17:56:25.359Z,12.54
2018-03-30T17:57:25.398Z,12.54
2018-03-30T17:59:18.387Z,12.49
2018-03-30T18:00:18.443Z,12.42
2018-03-30T18:02:11.450Z,12.47
2018-03-30T18:03:11.508Z,12.42
2018-03-30T18:05:04.486Z,12.39
2018-03-30T18:06:04.533Z,12.39
2018-03-30T18:07:57.538Z,12.28
2018-03-30T18:08:57.579Z,12.21
2018-03-30T18:10:50.580Z,12.25
2018-03-30T18:11:50.620Z,12.17
2018-03-30T18:13:43.608Z,12.07
2018-03-30T18:14:43.686Z,12.15
2018-03-30T18:16:36.688Z,12.18
2018-03-30T18:17:36.725Z,12.02
2018-03-30T18:19:29.709Z,12.04
2018-03-30T18:20:29.769Z,12.02
2018-03-30T18:22:22.770Z,11.99
2018-03-30T18:23:22.812Z,11.95
2018-03-30T18:25:15.808Z,12.03
2018-03-30T18:26:15.854Z,11.97
2018-03-30T18:28:08.858Z,11.95
2018-03-30T18:29:08.895Z,11.95
2018-03-30T18:31:01.900Z,11.90
2018-03-30T18:32:01.942Z,11.88
2018-03-30T18:33:54.922Z,11.94
2018-03-30T18:34:54.982Z,11.87
2018-03-30T18:36:47.982Z,11.94
2018-03-30T18:37:48.023Z,11.87
2018-03-30T18:39:41.005Z,11.83
2018-03-30T18:40:41.064Z,11.80
2018-03-30T18:42:34.068Z,11.73
2018-03-30T18:43:34.108Z,11.66
2018-03-30T18:45:27.091Z,11.70
2018-03-30T18:46:27.149Z,11.70
2018-03-30T18:48:20.155Z,11.73
2018-03-30T18:49:20.192Z,11.72
2018-03-30T18:51:13.192Z,11.77